Time;durP1;ratioP1;P1;durP2;ratioP2;P2;SDS_P1;SDS_P2;PMS_P1;PMS_P2;Temp;Humidity;BMP_temperature;BMP_pressure;BME280_temperature;BME280_humidity;BME280_pressure;Samples;Min_cycle;Max_cycle;Signal;HPM_P1;HPM_P2
2022/03/17 00:00:57;;;;;;;6.63;2.90;;;4.50;99.90;;;;;;6281780;22;20029;-89
2022/03/17 00:03:23;;;;;;;11.57;3.38;;;4.50;99.90;;;;;;6281542;22;20473;-88
2022/03/17 00:05:49;;;;;;;6.43;2.92;;;4.40;99.90;;;;;;6281971;22;20003;-90
2022/03/17 00:08:16;;;;;;;8.32;2.95;;;4.40;99.90;;;;;;6281559;22;20015;-88
2022/03/17 00:10:43;;;;;;;9.00;3.00;;;4.40;99.90;;;;;;6281412;22;20030;-89
2022/03/17 00:13:08;;;;;;;5.75;2.60;;;4.40;99.90;;;;;;6281489;22;20007;-88
2022/03/17 00:15:35;;;;;;;15.88;2.83;;;4.40;99.90;;;;;;6281512;22;20034;-88
2022/03/17 00:18:00;;;;;;;5.35;2.58;;;4.40;99.90;;;;;;6281555;22;20007;-89
2022/03/17 00:20:26;;;;;;;10.45;2.58;;;4.30;99.90;;;;;;6281665;22;20003;-87
2022/03/17 00:22:52;;;;;;;7.32;2.58;;;4.30;99.90;;;;;;6280762;22;20038;-88
2022/03/17 00:25:18;;;;;;;9.25;2.67;;;4.30;99.90;;;;;;6281006;22;20003;-89
2022/03/17 00:27:44;;;;;;;8.05;2.80;;;4.30;99.90;;;;;;6281542;22;20011;-88
2022/03/17 00:30:10;;;;;;;8.60;3.40;;;4.30;99.90;;;;;;6282600;22;19999;-89
2022/03/17 00:32:37;;;;;;;6.90;2.42;;;4.20;99.90;;;;;;6306153;22;20057;-89
2022/03/17 00:37:48;;;;;;;9.50;3.05;;;4.20;99.90;;;;;;6308590;22;20013;-89
2022/03/17 00:40:14;;;;;;;6.82;2.83;;;4.20;99.90;;;;;;6280758;22;20053;-90
2022/03/17 00:42:41;;;;;;;11.75;3.92;;;4.20;99.90;;;;;;6280948;22;20125;-89
2022/03/17 00:45:09;;;;;;;7.20;3.38;;;4.20;99.90;;;;;;6281177;22;20000;-88
2022/03/17 00:47:35;;;;;;;12.15;3.53;;;4.20;99.90;;;;;;6281283;22;20063;-89
2022/03/17 00:50:02;;;;;;;9.45;3.42;;;4.10;99.90;;;;;;6281202;22;20003;-90
2022/03/17 00:52:27;;;;;;;10.85;3.38;;;4.10;99.90;;;;;;6281678;22;20014;-89
2022/03/17 00:54:53;;;;;;;17.30;3.78;;;4.10;99.90;;;;;;6281427;22;20022;-89
2022/03/17 00:57:18;;;;;;;12.40;2.65;;;4.10;99.90;;;;;;6281630;22;20140;-88
2022/03/17 00:59:44;;;;;;;7.88;3.38;;;4.10;99.90;;;;;;6280847;22;20076;-89
2022/03/17 01:02:10;;;;;;;7.47;3.03;;;4.10;99.90;;;;;;6280799;22;20020;-89
2022/03/17 01:04:35;;;;;;;10.25;3.20;;;4.10;99.90;;;;;;6309255;22;20419;-89
2022/03/17 01:07:02;;;;;;;14.68;2.97;;;4.10;99.90;;;;;;6281190;22;20086;-89
2022/03/17 01:09:28;;;;;;;8.70;3.33;;;4.10;99.90;;;;;;6281965;22;20003;-88
2022/03/17 01:11:54;;;;;;;15.10;4.10;;;4.10;99.90;;;;;;6282191;22;20071;-89
2022/03/17 01:14:20;;;;;;;9.60;4.68;;;4.10;99.90;;;;;;6283314;22;20429;-89
2022/03/17 01:16:46;;;;;;;15.25;4.60;;;4.00;99.90;;;;;;6284636;22;20082;-88
2022/03/17 01:19:12;;;;;;;12.48;4.88;;;4.00;99.90;;;;;;6306926;22;19995;-90
2022/03/17 01:21:37;;;;;;;13.43;5.80;;;4.00;99.90;;;;;;6307342;22;20010;-89
2022/03/17 01:24:03;;;;;;;12.45;4.35;;;4.00;99.90;;;;;;6319309;22;20057;-89
2022/03/17 01:26:30;;;;;;;17.15;6.10;;;4.00;99.90;;;;;;6292339;22;19995;-90
2022/03/17 01:28:56;;;;;;;16.85;4.40;;;4.00;99.90;;;;;;6284681;22;20010;-90
2022/03/17 01:31:24;;;;;;;10.77;3.78;;;3.90;99.90;;;;;;6283299;22;20491;-90
2022/03/17 01:33:50;;;;;;;13.20;3.83;;;3.90;99.90;;;;;;6283773;22;20027;-89
2022/03/17 01:36:16;;;;;;;10.15;3.35;;;3.90;99.90;;;;;;6284386;22;20090;-89
2022/03/17 01:38:42;;;;;;;15.30;4.20;;;3.90;99.90;;;;;;6284087;22;19999;-90
2022/03/17 01:41:07;;;;;;;11.50;3.72;;;3.90;99.90;;;;;;6284562;22;20003;-89
2022/03/17 01:43:33;;;;;;;10.57;3.22;;;3.80;99.90;;;;;;6284430;22;20007;-89
2022/03/17 01:45:59;;;;;;;9.55;3.50;;;3.90;99.90;;;;;;6284093;22;20008;-89
2022/03/17 01:48:24;;;;;;;17.23;3.88;;;3.90;99.90;;;;;;6284724;22;20015;-88
2022/03/17 01:50:51;;;;;;;8.73;3.90;;;3.90;99.90;;;;;;6284954;22;20006;-89
2022/03/17 01:53:17;;;;;;;14.77;3.65;;;3.80;99.90;;;;;;6285942;22;20083;-88
2022/03/17 01:55:43;;;;;;;10.57;3.53;;;3.80;99.90;;;;;;6292303;22;19999;-88
2022/03/17 01:58:09;;;;;;;12.55;3.92;;;3.80;99.90;;;;;;6293126;22;20043;-89
2022/03/17 02:00:37;;;;;;;10.88;4.07;;;3.80;99.90;;;;;;6300301;22;20010;-87
2022/03/17 02:03:03;;;;;;;15.07;3.70;;;3.80;99.90;;;;;;6299573;22;20071;-88
2022/03/17 02:05:29;;;;;;;14.50;4.82;;;3.80;99.90;;;;;;6294146;22;20030;-87
2022/03/17 02:07:55;;;;;;;10.60;4.10;;;3.80;99.90;;;;;;6293735;22;20014;-91
2022/03/17 02:10:22;;;;;;;14.10;3.72;;;3.80;99.90;;;;;;6285129;22;20049;-88
2022/03/17 02:15:33;;;;;;;18.67;5.10;;;3.80;99.90;;;;;;6311632;22;20006;-89
2022/03/17 02:18:02;;;;;;;18.05;4.35;;;3.70;99.90;;;;;;6283914;22;20008;-89
2022/03/17 02:20:28;;;;;;;10.30;3.58;;;3.70;99.90;;;;;;6284064;22;20560;-89
2022/03/17 02:25:33;;;;;;;17.05;3.50;;;3.70;99.90;;;;;;6284059;22;20015;-89
2022/03/17 02:25:42;;;;;;;12.40;4.97;;;3.60;99.90;;;;;;6310990;22;20074;-88
2022/03/17 02:28:08;;;;;;;10.02;3.28;;;3.60;99.90;;;;;;6310143;22;20008;-88
2022/03/17 02:30:37;;;;;;;12.05;3.13;;;3.60;99.90;;;;;;6310266;22;20395;-88
2022/03/17 02:33:07;;;;;;;16.13;3.42;;;3.60;99.90;;;;;;6282796;22;20019;-88
2022/03/17 02:35:34;;;;;;;15.43;3.05;;;3.60;99.90;;;;;;6283081;22;20450;-88
2022/03/17 02:38:04;;;;;;;9.90;3.13;;;3.60;99.90;;;;;;6283106;22;19999;-88
2022/03/17 02:40:31;;;;;;;9.00;2.63;;;3.50;99.90;;;;;;6282734;22;20007;-89
2022/03/17 02:42:57;;;;;;;13.70;3.72;;;3.50;99.90;;;;;;6282418;22;20015;-89
2022/03/17 02:45:23;;;;;;;9.23;2.97;;;3.50;99.90;;;;;;6282916;22;20133;-89
2022/03/17 02:47:49;;;;;;;14.65;3.35;;;3.50;99.90;;;;;;6283141;22;20484;-89
2022/03/17 02:50:16;;;;;;;14.98;3.53;;;3.50;99.90;;;;;;6282481;22;20045;-88
2022/03/17 02:52:42;;;;;;;10.38;4.30;;;3.50;99.90;;;;;;6282703;22;20082;-89
2022/03/17 02:55:11;;;;;;;12.75;3.88;;;3.50;99.90;;;;;;6282301;22;19999;-89
2022/03/17 02:57:40;;;;;;;9.20;3.30;;;3.50;99.90;;;;;;6282624;22;20081;-89
2022/03/17 03:00:09;;;;;;;10.90;3.63;;;3.40;99.90;;;;;;6282504;22;20074;-88
2022/03/17 03:02:35;;;;;;;7.72;2.72;;;3.40;99.90;;;;;;6282306;22;20018;-88
2022/03/17 03:05:02;;;;;;;9.20;3.67;;;3.50;99.90;;;;;;6282502;22;20003;-90
2022/03/17 03:07:28;;;;;;;14.30;4.18;;;3.50;99.90;;;;;;6282746;22;20010;-88
2022/03/17 03:09:55;;;;;;;7.65;2.80;;;3.50;99.90;;;;;;6282464;22;20067;-89
2022/03/17 03:12:21;;;;;;;7.72;2.22;;;3.50;99.90;;;;;;6309913;22;19996;-88
2022/03/17 03:14:48;;;;;;;11.13;2.90;;;3.60;99.90;;;;;;6310082;22;20338;-88
2022/03/17 03:17:13;;;;;;;14.00;2.60;;;3.60;99.90;;;;;;6281909;22;20032;-88
2022/03/17 03:19:39;;;;;;;12.93;2.50;;;3.60;99.90;;;;;;6282358;22;20031;-90
2022/03/17 03:22:05;;;;;;;13.18;2.55;;;3.60;99.90;;;;;;6283291;22;20015;-89
2022/03/17 03:24:31;;;;;;;11.65;2.72;;;3.60;99.90;;;;;;6282369;22;19999;-89
2022/03/17 03:26:56;;;;;;;16.05;3.88;;;3.60;99.90;;;;;;6281888;22;20010;-89
2022/03/17 03:29:28;;;;;;;10.15;2.53;;;3.70;99.90;;;;;;6282288;22;20007;-89
2022/03/17 03:32:03;;;;;;;6.65;2.60;;;3.60;99.90;;;;;;6282212;22;20017;-89
2022/03/17 03:34:30;;;;;;;9.50;2.47;;;3.60;99.90;;;;;;6281762;22;20007;-89
2022/03/17 03:39:44;;;;;;;12.45;2.65;;;3.60;99.90;;;;;;6309265;22;20060;-90
2022/03/17 03:42:11;;;;;;;18.35;4.32;;;3.50;99.90;;;;;;6281658;22;20323;-89
2022/03/17 03:44:38;;;;;;;18.17;6.30;;;3.60;99.90;;;;;;6281736;22;19999;-87
2022/03/17 03:47:05;;;;;;;20.48;6.05;;;3.60;99.90;;;;;;6281649;22;20019;-88
2022/03/17 03:49:31;;;;;;;23.55;7.18;;;3.60;99.90;;;;;;6282002;22;20042;-87
2022/03/17 03:51:57;;;;;;;16.77;6.60;;;3.60;99.90;;;;;;6281832;22;20003;-87
2022/03/17 03:54:22;;;;;;;18.38;6.15;;;3.60;99.90;;;;;;6281663;22;20080;-88
2022/03/17 03:56:51;;;;;;;23.25;6.85;;;3.60;99.90;;;;;;6281265;22;19999;-88
2022/03/17 03:59:21;;;;;;;21.42;7.22;;;3.60;99.90;;;;;;6281378;22;20010;-87
2022/03/17 04:01:49;;;;;;;21.38;7.28;;;3.60;99.90;;;;;;6281228;22;20071;-88
2022/03/17 04:04:18;;;;;;;21.02;6.38;;;3.70;99.90;;;;;;6281517;22;20007;-88
2022/03/17 04:06:46;;;;;;;21.80;9.35;;;3.70;99.90;;;;;;6281252;22;20006;-88
2022/03/17 04:09:13;;;;;;;20.00;9.02;;;3.70;99.90;;;;;;6281492;22;20027;-88
2022/03/17 04:11:43;;;;;;;30.98;8.82;;;3.70;99.90;;;;;;6281694;22;20007;-88
2022/03/17 04:14:10;;;;;;;19.10;8.02;;;3.60;99.90;;;;;;6281515;22;20025;-88
2022/03/17 04:16:36;;;;;;;24.58;8.68;;;3.60;99.90;;;;;;6281253;22;20080;-88
2022/03/17 04:19:03;;;;;;;29.92;9.90;;;3.60;99.90;;;;;;6281487;22;20014;-88
2022/03/17 04:21:29;;;;;;;22.83;8.88;;;3.60;99.90;;;;;;6281316;22;20339;-88
2022/03/17 04:23:54;;;;;;;20.48;7.57;;;3.60;99.90;;;;;;6281372;22;20003;-88
2022/03/17 04:26:20;;;;;;;26.45;8.93;;;3.60;99.90;;;;;;6281550;22;19999;-89
2022/03/17 04:28:46;;;;;;;17.08;7.65;;;3.60;99.90;;;;;;6282641;22;20003;-88
2022/03/17 04:31:12;;;;;;;20.85;7.03;;;3.60;99.90;;;;;;6280907;22;20000;-89
2022/03/17 04:33:38;;;;;;;29.50;8.98;;;3.60;99.90;;;;;;6280045;22;20056;-87
2022/03/17 04:36:05;;;;;;;17.55;7.43;;;3.60;99.90;;;;;;6279384;22;20042;-88
2022/03/17 04:38:32;;;;;;;26.40;7.47;;;3.60;99.90;;;;;;6280661;22;20010;-88
2022/03/17 04:40:58;;;;;;;16.35;7.55;;;3.60;99.90;;;;;;6282072;22;20003;-88
2022/03/17 04:43:24;;;;;;;19.27;7.05;;;3.60;99.90;;;;;;6281608;22;20019;-87
2022/03/17 04:45:50;;;;;;;17.35;6.35;;;3.60;99.90;;;;;;6281178;22;20090;-88
2022/03/17 04:48:16;;;;;;;16.58;6.10;;;3.50;99.90;;;;;;6281740;22;20008;-88
2022/03/17 04:50:42;;;;;;;17.52;4.80;;;3.50;99.90;;;;;;6281509;22;20000;-88
2022/03/17 04:55:52;;;;;;;13.05;3.90;;;3.50;99.90;;;;;;6308733;22;20014;-87
2022/03/17 04:58:18;;;;;;;13.20;3.90;;;3.50;99.90;;;;;;6307386;22;20003;-88
2022/03/17 05:00:44;;;;;;;11.73;3.85;;;3.60;99.90;;;;;;6281591;22;20014;-88
2022/03/17 05:03:10;;;;;;;8.45;3.60;;;3.60;99.90;;;;;;6252313;22;20038;-88
2022/03/17 05:05:36;;;;;;;14.65;3.58;;;3.50;99.90;;;;;;6245689;23;20061;-90
2022/03/17 05:08:02;;;;;;;11.55;2.65;;;3.50;99.90;;;;;;6246199;23;20004;-88
2022/03/17 05:10:28;;;;;;;11.88;2.28;;;3.50;99.90;;;;;;6248078;23;20008;-88
2022/03/17 05:12:55;;;;;;;12.15;2.20;;;3.60;99.90;;;;;;6248259;23;20040;-88
2022/03/17 05:15:21;;;;;;;8.65;2.40;;;3.50;99.90;;;;;;6248009;23;20090;-88
2022/03/17 05:17:49;;;;;;;6.82;2.60;;;3.60;99.90;;;;;;6248343;23;20040;-88
2022/03/17 05:20:15;;;;;;;9.63;2.17;;;3.60;99.90;;;;;;6253326;23;20000;-88
2022/03/17 05:22:42;;;;;;;12.88;3.40;;;3.50;99.90;;;;;;6252116;23;20020;-88
2022/03/17 05:25:11;;;;;;;7.93;2.28;;;3.60;99.90;;;;;;6259136;23;20008;-88
2022/03/17 05:27:40;;;;;;;8.18;2.47;;;3.50;99.90;;;;;;6264562;23;20027;-88
2022/03/17 05:30:06;;;;;;;9.63;1.58;;;3.50;99.90;;;;;;6261434;23;20007;-88
2022/03/17 05:32:32;;;;;;;7.55;1.90;;;3.50;99.90;;;;;;6255367;23;20054;-88
2022/03/17 05:34:58;;;;;;;6.00;2.22;;;3.50;99.90;;;;;;6253856;23;20439;-88
2022/03/17 05:37:24;;;;;;;7.75;2.10;;;3.50;99.90;;;;;;6248828;23;20523;-88
2022/03/17 05:39:51;;;;;;;14.40;2.20;;;3.50;99.90;;;;;;6248452;23;20008;-88
2022/03/17 05:42:17;;;;;;;10.90;2.10;;;3.50;99.90;;;;;;6248142;23;20012;-88
2022/03/17 05:44:42;;;;;;;12.45;2.85;;;3.60;99.90;;;;;;6248434;23;20043;-88
2022/03/17 05:47:08;;;;;;;13.98;3.85;;;3.60;99.90;;;;;;6247895;23;20004;-88
2022/03/17 05:49:34;;;;;;;13.40;2.60;;;3.50;99.90;;;;;;6246952;23;20036;-88
2022/03/17 05:52:00;;;;;;;13.90;2.25;;;3.50;99.90;;;;;;6246775;23;20332;-88
2022/03/17 05:54:25;;;;;;;13.90;2.25;;;3.50;99.90;;;;;;6246306;23;20004;-88
2022/03/17 05:56:51;;;;;;;7.15;2.03;;;3.50;99.90;;;;;;6248630;23;20015;-89
2022/03/17 05:59:17;;;;;;;12.57;2.38;;;3.50;99.90;;;;;;6247169;23;20015;-88
2022/03/17 06:01:42;;;;;;;9.55;2.65;;;3.50;99.90;;;;;;6246825;22;20015;-90
2022/03/17 06:04:08;;;;;;;7.75;1.88;;;3.50;99.90;;;;;;6247744;23;20044;-88
2022/03/17 06:06:34;;;;;;;12.02;1.88;;;3.40;99.90;;;;;;6248408;23;20011;-88
2022/03/17 06:09:00;;;;;;;7.45;1.58;;;3.40;99.90;;;;;;6249466;23;20004;-89
2022/03/17 06:11:27;;;;;;;9.45;3.90;;;3.40;99.90;;;;;;6248295;23;20489;-88
2022/03/17 06:13:53;;;;;;;4.60;1.40;;;3.40;99.90;;;;;;6247389;23;20015;-88
2022/03/17 06:16:20;;;;;;;7.05;1.65;;;3.40;99.90;;;;;;6247866;23;20004;-88
2022/03/17 06:18:47;;;;;;;9.00;1.67;;;3.40;99.90;;;;;;6248558;23;20448;-89
2022/03/17 06:21:13;;;;;;;8.32;1.42;;;3.30;99.90;;;;;;6246731;23;20099;-89
2022/03/17 06:23:39;;;;;;;6.75;1.63;;;3.40;99.90;;;;;;6247067;23;20008;-89
2022/03/17 06:26:04;;;;;;;9.13;1.73;;;3.30;99.90;;;;;;6247032;23;20087;-89
2022/03/17 06:28:30;;;;;;;10.00;1.67;;;3.30;99.90;;;;;;6246450;23;20036;-89
2022/03/17 06:30:56;;;;;;;6.13;1.42;;;3.30;99.90;;;;;;6247767;22;20004;-87
2022/03/17 06:33:22;;;;;;;6.20;1.27;;;3.30;99.90;;;;;;6246282;23;20000;-88
2022/03/17 06:35:48;;;;;;;7.53;1.48;;;3.30;99.90;;;;;;6245975;23;20458;-88
2022/03/17 06:38:14;;;;;;;15.25;1.90;;;3.30;99.90;;;;;;6245865;23;20012;-87
2022/03/17 06:40:41;;;;;;;6.93;1.80;;;3.30;99.90;;;;;;6246013;23;20008;-88
2022/03/17 06:43:07;;;;;;;6.97;2.30;;;3.30;99.90;;;;;;6246653;23;20012;-88
2022/03/17 06:45:33;;;;;;;6.40;2.00;;;3.30;99.90;;;;;;6247028;23;20016;-88
2022/03/17 06:47:59;;;;;;;11.13;1.75;;;3.30;99.90;;;;;;6247860;23;20073;-89
2022/03/17 06:50:26;;;;;;;8.45;1.60;;;3.30;99.90;;;;;;6247942;23;20000;-87
2022/03/17 06:52:52;;;;;;;7.65;2.53;;;3.30;99.90;;;;;;6248356;23;20145;-90
2022/03/17 06:55:18;;;;;;;10.13;1.58;;;3.30;99.90;;;;;;6249778;23;20077;-89
2022/03/17 06:57:44;;;;;;;8.95;1.58;;;3.30;99.90;;;;;;6248827;23;20076;-88
2022/03/17 07:00:12;;;;;;;14.23;2.17;;;3.30;99.90;;;;;;6249381;23;20008;-88
2022/03/17 07:02:38;;;;;;;9.63;1.60;;;3.30;99.90;;;;;;6252987;22;20016;-89
2022/03/17 07:05:05;;;;;;;12.10;2.42;;;3.30;99.90;;;;;;6252575;23;20023;-89
2022/03/17 07:07:32;;;;;;;10.10;2.38;;;3.30;99.90;;;;;;6253821;22;20004;-89
2022/03/17 07:09:58;;;;;;;8.25;1.63;;;3.30;99.90;;;;;;6251793;23;20012;-88
2022/03/17 07:12:23;;;;;;;10.52;1.63;;;3.30;99.90;;;;;;6251319;23;20012;-88
2022/03/17 07:14:49;;;;;;;4.57;1.50;;;3.30;99.90;;;;;;6249875;23;20100;-88
2022/03/17 07:17:22;;;;;;;7.90;1.77;;;3.30;99.90;;;;;;6249509;23;20016;-88
2022/03/17 07:22:27;;;;;;;9.43;2.05;;;3.40;99.90;;;;;;6259191;22;20008;-88
2022/03/17 07:24:53;;;;;;;7.72;1.35;;;3.50;99.90;;;;;;6246794;23;20011;-88
2022/03/17 07:27:21;;;;;;;9.55;1.88;;;3.50;99.90;;;;;;6246861;23;20000;-88
2022/03/17 07:29:50;;;;;;;8.93;1.80;;;3.50;99.90;;;;;;6246708;23;20342;-87
2022/03/17 07:32:18;;;;;;;9.80;1.50;;;3.60;99.90;;;;;;6240732;23;20004;-88
2022/03/17 07:34:45;;;;;;;7.07;1.55;;;3.60;99.90;;;;;;6245812;23;20048;-91
2022/03/17 07:37:11;;;;;;;7.68;1.45;;;3.70;99.90;;;;;;6246426;23;20008;-88
2022/03/17 07:39:37;;;;;;;8.52;1.80;;;3.70;99.90;;;;;;6246178;23;20380;-90
2022/03/17 07:42:06;;;;;;;6.13;1.30;;;3.70;99.90;;;;;;6245983;23;20012;-89
2022/03/17 07:44:32;;;;;;;10.60;1.50;;;3.80;99.90;;;;;;6246770;23;20007;-90
2022/03/17 07:46:58;;;;;;;7.05;1.60;;;3.80;99.90;;;;;;6248276;23;20066;-90
2022/03/17 07:49:24;;;;;;;7.88;1.42;;;3.90;99.90;;;;;;6247390;23;20038;-89
2022/03/17 07:51:49;;;;;;;7.30;1.50;;;4.00;99.90;;;;;;6244795;23;20004;-87
2022/03/17 07:54:15;;;;;;;10.30;1.92;;;4.10;99.90;;;;;;6245010;23;20040;-87
2022/03/17 07:56:41;;;;;;;4.07;1.60;;;4.10;99.90;;;;;;6245019;23;20007;-88
2022/03/17 07:59:08;;;;;;;11.82;1.88;;;4.20;99.90;;;;;;6246460;23;20562;-88
2022/03/17 08:01:34;;;;;;;16.55;2.58;;;4.30;99.90;;;;;;6252722;22;20091;-87
2022/03/17 08:03:59;;;;;;;7.13;1.23;;;4.30;99.90;;;;;;6282533;22;20065;-88
2022/03/17 08:06:25;;;;;;;6.18;1.73;;;4.40;99.90;;;;;;6309667;22;20010;-89
2022/03/17 08:08:51;;;;;;;8.75;1.52;;;4.50;99.90;;;;;;6281495;22;20007;-88
2022/03/17 08:11:17;;;;;;;8.63;1.48;;;4.50;99.90;;;;;;6281321;22;20025;-87
2022/03/17 08:13:43;;;;;;;7.28;1.30;;;4.60;99.90;;;;;;6281686;22;20068;-87
2022/03/17 08:16:12;;;;;;;8.63;1.65;;;4.70;99.90;;;;;;6281269;22;19995;-88
2022/03/17 08:18:38;;;;;;;9.90;2.10;;;4.80;99.90;;;;;;6282626;22;19999;-89
2022/03/17 08:21:33;;;;;;;7.90;1.70;;;4.90;99.90;;;;;;6280847;22;20358;-87
2022/03/17 08:23:58;;;;;;;8.02;1.77;;;5.00;99.90;;;;;;6276165;22;20017;-86
2022/03/17 08:26:24;;;;;;;14.38;2.25;;;5.10;99.90;;;;;;6281540;22;20010;-87
2022/03/17 08:28:50;;;;;;;6.60;1.63;;;5.20;99.90;;;;;;6277735;22;20011;-87
2022/03/17 08:31:15;;;;;;;9.68;1.92;;;5.30;99.90;;;;;;6280249;22;20007;-88
2022/03/17 08:33:41;;;;;;;9.52;2.45;;;5.30;99.90;;;;;;6279876;22;19999;-88
2022/03/17 08:36:07;;;;;;;11.77;2.45;;;5.40;99.90;;;;;;6280174;22;20014;-88
2022/03/17 08:38:33;;;;;;;11.98;1.83;;;5.50;99.90;;;;;;6281505;22;20003;-86
2022/03/17 08:40:59;;;;;;;9.50;1.88;;;5.60;99.90;;;;;;6282870;22;20011;-89
2022/03/17 08:43:25;;;;;;;8.05;1.95;;;5.70;99.90;;;;;;6279746;22;20430;-88
2022/03/17 08:51:24;;;;;;;13.50;1.80;;;5.90;99.90;;;;;;6325361;22;20043;-88
2022/03/17 08:53:50;;;;;;;6.95;1.90;;;5.90;99.90;;;;;;6298101;22;20003;-89
2022/03/17 08:56:16;;;;;;;6.72;1.63;;;6.00;99.90;;;;;;6293842;22;20076;-88
2022/03/17 08:58:42;;;;;;;9.65;1.70;;;6.10;99.90;;;;;;6287272;22;20013;-89
2022/03/17 09:01:08;;;;;;;6.00;1.67;;;6.10;99.90;;;;;;6285475;22;20308;-88
2022/03/17 09:03:33;;;;;;;11.27;1.90;;;6.20;99.90;;;;;;6282453;22;20057;-89
2022/03/17 09:06:00;;;;;;;8.27;1.80;;;6.30;99.90;;;;;;6283081;22;20023;-88
2022/03/17 09:08:27;;;;;;;2.22;1.25;;;6.40;99.90;;;;;;6283414;22;20094;-88
2022/03/17 09:10:55;;;;;;;3.35;1.48;;;6.40;99.90;;;;;;6282003;22;20067;-89
2022/03/17 09:13:28;;;;;;;15.18;3.20;;;6.40;99.90;;;;;;6280585;22;20022;-88
2022/03/17 09:15:55;;;;;;;8.88;1.90;;;6.50;99.90;;;;;;6281942;22;20003;-88
2022/03/17 09:18:22;;;;;;;7.25;1.63;;;6.60;99.90;;;;;;6282427;22;20010;-86
2022/03/17 09:20:48;;;;;;;5.95;1.42;;;6.70;99.90;;;;;;6256581;22;20026;-88
2022/03/17 09:23:14;;;;;;;4.95;1.60;;;6.80;99.90;;;;;;6281830;22;20339;-87
2022/03/17 09:25:48;;;;;;;9.35;2.55;;;6.90;99.90;;;;;;6282451;22;20014;-89
2022/03/17 09:28:17;;;;;;;4.88;1.48;;;7.00;99.90;;;;;;6282520;22;20038;-89
2022/03/17 09:30:43;;;;;;;10.27;1.58;;;7.10;99.90;;;;;;6281959;22;20015;-89
2022/03/17 09:33:09;;;;;;;5.70;2.58;;;7.20;99.90;;;;;;6281123;22;20007;-89
2022/03/17 09:35:35;;;;;;;8.00;1.52;;;7.30;99.90;;;;;;6282327;22;20009;-89
2022/03/17 09:38:02;;;;;;;4.32;1.33;;;7.50;99.90;;;;;;6256342;22;20007;-88
2022/03/17 09:40:28;;;;;;;10.85;1.90;;;7.60;99.90;;;;;;6281105;22;20003;-88
2022/03/17 09:43:18;;;;;;;6.90;2.00;;;7.70;99.90;;;;;;6281185;22;20022;-87
2022/03/17 09:45:43;;;;;;;5.13;1.77;;;7.80;99.90;;;;;;6308456;22;19999;-89
2022/03/17 09:48:11;;;;;;;4.63;0.88;;;8.00;99.90;;;;;;6281173;22;20003;-88
2022/03/17 09:50:38;;;;;;;1.92;0.80;;;8.10;99.90;;;;;;6280810;22;20004;-87
2022/03/17 09:53:04;;;;;;;3.25;0.68;;;8.20;99.90;;;;;;6280662;22;20091;-90
2022/03/17 09:55:30;;;;;;;4.00;0.90;;;8.20;99.90;;;;;;6309482;22;20022;-89
2022/03/17 09:57:57;;;;;;;2.92;0.77;;;8.30;99.90;;;;;;6283528;22;20003;-89
2022/03/17 10:00:47;;;;;;;3.80;1.20;;;8.40;99.90;;;;;;6283571;22;20011;-88
2022/03/17 10:03:08;;;;;;;4.15;1.30;;;8.50;99.90;;;;;;6309359;22;20466;-87
2022/03/17 10:05:35;;;;;;;2.30;0.73;;;8.60;99.90;;;;;;6282722;22;20003;-89
2022/03/17 10:08:00;;;;;;;7.32;0.90;;;8.70;99.90;;;;;;6279490;22;20026;-87
2022/03/17 10:10:37;;;;;;;5.47;0.68;;;8.80;99.90;;;;;;6282917;22;20427;-87
2022/03/17 10:13:06;;;;;;;7.60;1.30;;;8.90;99.90;;;;;;6282766;22;20011;-86
2022/03/17 10:15:32;;;;;;;2.17;1.00;;;9.10;99.90;;;;;;6282460;22;20449;-87
2022/03/17 10:17:57;;;;;;;3.28;1.05;;;9.20;99.90;;;;;;6282480;22;20003;-87
2022/03/17 10:20:34;;;;;;;5.53;1.13;;;9.50;99.90;;;;;;6281678;22;20148;-89
2022/03/17 10:23:02;;;;;;;3.35;0.85;;;9.60;99.90;;;;;;6281741;22;20011;-88
2022/03/17 10:25:30;;;;;;;5.28;1.95;;;9.80;99.90;;;;;;6281835;22;20322;-86
2022/03/17 10:27:57;;;;;;;5.97;1.27;;;10.00;99.90;;;;;;6282972;22;20011;-89
2022/03/17 10:30:33;;;;;;;1.98;0.82;;;10.30;99.90;;;;;;6282406;22;19999;-89
2022/03/17 10:33:03;;;;;;;4.20;0.77;;;10.40;99.90;;;;;;6282341;22;20010;-89
2022/03/17 10:35:35;;;;;;;2.47;0.85;;;10.50;99.90;;;;;;6282057;22;20373;-89
2022/03/17 10:38:16;;;;;;;5.90;1.33;;;10.60;99.10;;;;;;6281944;22;20499;-88
2022/03/17 10:40:43;;;;;;;6.32;1.15;;;10.70;98.80;;;;;;6283635;22;20003;-89
2022/03/17 10:43:22;;;;;;;3.05;0.85;;;11.00;99.00;;;;;;6282023;22;20056;-89
2022/03/17 10:46:06;;;;;;;5.22;1.23;;;11.10;97.10;;;;;;6282915;22;20002;-89
2022/03/17 10:48:32;;;;;;;4.93;1.33;;;11.20;96.10;;;;;;6282415;22;20007;-89
2022/03/17 10:50:58;;;;;;;5.00;0.73;;;11.30;95.80;;;;;;6282241;22;20392;-89
2022/03/17 10:53:31;;;;;;;5.20;0.73;;;11.40;93.60;;;;;;6282872;22;20600;-89
2022/03/17 10:56:17;;;;;;;5.40;1.00;;;11.40;93.10;;;;;;6282609;22;20007;-90
2022/03/17 10:58:43;;;;;;;7.50;1.63;;;11.40;92.70;;;;;;6284020;22;20039;-90
2022/03/17 11:01:10;;;;;;;5.53;1.50;;;11.50;92.00;;;;;;6284789;22;20007;-89
2022/03/17 11:03:36;;;;;;;1.58;0.52;;;11.60;92.20;;;;;;6285270;22;20350;-89
2022/03/17 11:06:03;;;;;;;4.70;1.10;;;11.70;91.70;;;;;;6288056;22;20007;-91
2022/03/17 11:08:31;;;;;;;6.15;1.23;;;11.70;91.50;;;;;;6305118;22;20080;-90
2022/03/17 11:11:00;;;;;;;2.55;0.85;;;11.90;91.80;;;;;;6308191;22;20003;-90
2022/03/17 11:13:26;;;;;;;4.13;0.80;;;12.10;91.60;;;;;;6297699;22;20030;-88
2022/03/17 11:16:08;;;;;;;4.57;0.90;;;12.30;91.40;;;;;;6286660;22;20166;-90
2022/03/17 11:18:39;;;;;;;4.18;0.80;;;12.50;90.90;;;;;;6285927;22;20086;-89
2022/03/17 11:21:21;;;;;;;4.38;0.70;;;12.50;90.40;;;;;;6284842;22;20011;-90
2022/03/17 11:23:56;;;;;;;2.42;0.80;;;12.60;90.00;;;;;;6283561;22;20015;-88
2022/03/17 11:26:34;;;;;;;3.40;0.60;;;12.80;89.50;;;;;;6283838;22;20010;-88
2022/03/17 11:29:17;;;;;;;4.07;0.80;;;12.90;89.20;;;;;;6309516;22;20007;-88
2022/03/17 11:31:51;;;;;;;9.73;1.05;;;13.00;88.50;;;;;;6283076;22;20007;-89
2022/03/17 11:34:39;;;;;;;3.20;1.02;;;13.20;88.30;;;;;;6283217;22;20091;-89
2022/03/17 11:37:20;;;;;;;1.02;0.60;;;13.40;87.30;;;;;;6283841;22;20008;-89
2022/03/17 11:39:57;;;;;;;3.65;0.60;;;13.50;86.00;;;;;;6282842;22;20007;-88
2022/03/17 11:42:41;;;;;;;7.60;1.17;;;13.50;84.70;;;;;;6281756;22;20018;-88
2022/03/17 11:45:10;;;;;;;5.90;1.00;;;13.40;84.30;;;;;;6283282;22;20019;-87
2022/03/17 11:47:37;;;;;;;5.38;0.85;;;13.40;84.50;;;;;;6282108;22;20007;-89
2022/03/17 11:50:23;;;;;;;5.18;0.88;;;13.60;84.70;;;;;;6282898;22;20518;-89
2022/03/17 11:53:05;;;;;;;5.78;0.80;;;13.80;84.20;;;;;;6284834;22;20014;-89
2022/03/17 11:55:35;;;;;;;4.45;0.45;;;14.00;83.90;;;;;;6284229;22;20008;-90
2022/03/17 11:58:33;;;;;;;4.90;0.68;;;14.20;82.80;;;;;;6282109;22;20090;-89
2022/03/17 12:01:11;;;;;;;5.82;0.95;;;14.20;81.30;;;;;;6285793;22;19999;-90
2022/03/17 12:03:39;;;;;;;2.80;0.63;;;14.40;81.60;;;;;;6283421;22;20093;-88
2022/03/17 12:06:09;;;;;;;4.10;0.82;;;14.50;81.30;;;;;;6285906;22;20030;-90
2022/03/17 12:08:47;;;;;;;3.28;0.60;;;14.70;80.60;;;;;;6286959;22;20004;-89
2022/03/17 12:11:15;;;;;;;3.30;0.68;;;14.80;80.70;;;;;;6293865;22;20434;-89
2022/03/17 12:14:23;;;;;;;2.92;0.75;;;15.00;80.70;;;;;;6291727;22;20003;-88
2022/03/17 12:16:51;;;;;;;5.45;1.33;;;15.10;78.60;;;;;;6288271;22;20003;-88
2022/03/17 12:19:48;;;;;;;3.83;0.60;;;15.10;77.90;;;;;;6286291;22;20026;-89
2022/03/17 12:22:39;;;;;;;2.95;0.40;;;15.20;77.70;;;;;;6283218;22;20045;-88
2022/03/17 12:25:17;;;;;;;3.90;0.80;;;15.30;77.00;;;;;;6283267;22;20015;-89
2022/03/17 12:27:44;;;;;;;6.57;0.80;;;15.30;76.70;;;;;;6283180;22;20004;-89
2022/03/17 12:30:15;;;;;;;4.18;0.80;;;15.50;75.90;;;;;;6282261;22;20003;-88
2022/03/17 12:32:46;;;;;;;3.50;0.75;;;15.70;75.80;;;;;;6282880;22;20010;-88
2022/03/17 12:35:12;;;;;;;3.42;0.95;;;15.90;74.90;;;;;;6283330;22;20105;-88
2022/03/17 12:37:40;;;;;;;3.65;1.00;;;16.00;74.60;;;;;;6282595;22;19999;-88
2022/03/17 12:40:08;;;;;;;6.43;1.17;;;16.10;74.50;;;;;;6282559;22;20010;-89
2022/03/17 12:42:43;;;;;;;3.25;0.52;;;16.30;74.30;;;;;;6282335;22;20019;-88
2022/03/17 12:45:17;;;;;;;1.88;0.82;;;16.60;74.40;;;;;;6282375;22;19999;-88
2022/03/17 12:47:48;;;;;;;2.67;0.70;;;16.80;72.70;;;;;;6282732;22;20006;-88
2022/03/17 12:50:19;;;;;;;7.75;0.75;;;16.80;71.50;;;;;;6282304;22;20022;-89
2022/03/17 12:52:45;;;;;;;;;;;16.80;72.00;;;;;;6284390;22;20003;-88
2022/03/17 12:55:13;;;;;;;3.80;0.98;;;16.80;70.30;;;;;;6286673;22;19899;-87
2022/03/17 12:57:41;;;;;;;2.33;0.98;;;16.60;71.30;;;;;;6283679;22;20004;-87
2022/03/17 13:00:12;;;;;;;4.65;1.00;;;16.60;71.50;;;;;;6310941;22;20007;-89
2022/03/17 13:02:45;;;;;;;2.25;0.82;;;16.60;71.70;;;;;;6282389;22;20057;-88
2022/03/17 13:07:59;;;;;;;3.03;0.65;;;16.30;72.10;;;;;;6302208;22;20060;-89
2022/03/17 13:10:26;;;;;;;3.58;0.68;;;16.00;71.60;;;;;;6280369;22;19999;-88
2022/03/17 13:15:37;;;;;;;4.70;0.90;;;15.30;72.40;;;;;;6305715;22;20014;-88
2022/03/17 13:18:05;;;;;;;2.88;0.25;;;14.90;73.60;;;;;;6280047;22;20011;-88
2022/03/17 13:20:35;;;;;;;2.72;0.50;;;14.60;74.10;;;;;;6279518;22;19999;-88